Map

Track Data

SID SEASON NUMBER BASIN SUBBASIN NAME ISO_TIME NATURE LAT LON WMO_WIND WMO_PRES WMO_AGENCY TRACK_TYPE DIST2LAND LANDFALL IFLAG USA_AGENCY USA_ATCF_ID USA_LAT USA_LON USA_RECORD USA_STATUS USA_WIND USA_PRES USA_SSHS USA_R34_NE USA_R34_SE USA_R34_SW USA_R34_NW USA_R50_NE USA_R50_SE USA_R50_SW USA_R50_NW USA_R64_NE USA_R64_SE USA_R64_SW USA_R64_NW USA_POCI USA_ROCI USA_RMW USA_EYE TOKYO_LAT TOKYO_LON TOKYO_GRADE TOKYO_WIND TOKYO_PRES TOKYO_R50_DIR TOKYO_R50_LONG TOKYO_R50_SHORT TOKYO_R30_DIR TOKYO_R30_LONG TOKYO_R30_SHORT TOKYO_LAND CMA_LAT CMA_LON CMA_CAT CMA_WIND CMA_PRES HKO_LAT HKO_LON HKO_CAT HKO_WIND HKO_PRES NEWDELHI_LAT NEWDELHI_LON NEWDELHI_GRADE NEWDELHI_WIND NEWDELHI_PRES NEWDELHI_CI NEWDELHI_DP NEWDELHI_POCI REUNION_LAT REUNION_LON REUNION_TYPE REUNION_WIND REUNION_PRES REUNION_TNUM REUNION_CI REUNION_RMW REUNION_R34_NE REUNION_R34_SE REUNION_R34_SW REUNION_R34_NW REUNION_R50_NE REUNION_R50_SE REUNION_R50_SW REUNION_R50_NW REUNION_R64_NE REUNION_R64_SE REUNION_R64_SW REUNION_R64_NW BOM_LAT BOM_LON BOM_TYPE BOM_WIND BOM_PRES BOM_TNUM BOM_CI BOM_RMW BOM_R34_NE BOM_R34_SE BOM_R34_SW BOM_R34_NW BOM_R50_NE BOM_R50_SE BOM_R50_SW BOM_R50_NW BOM_R64_NE BOM_R64_SE BOM_R64_SW BOM_R64_NW BOM_ROCI BOM_POCI BOM_EYE BOM_POS_METHOD BOM_PRES_METHOD NADI_LAT NADI_LON NADI_CAT NADI_WIND NADI_PRES WELLINGTON_LAT WELLINGTON_LON WELLINGTON_WIND WELLINGTON_PRES DS824_LAT DS824_LON DS824_STAGE DS824_WIND DS824_PRES TD9636_LAT TD9636_LON TD9636_STAGE TD9636_WIND TD9636_PRES TD9635_LAT TD9635_LON TD9635_WIND TD9635_PRES TD9635_ROCI NEUMANN_LAT NEUMANN_LON NEUMANN_CLASS NEUMANN_WIND NEUMANN_PRES MLC_LAT MLC_LON MLC_CLASS MLC_WIND MLC_PRES USA_GUST BOM_GUST BOM_GUST_PER REUNION_GUST REUNION_GUST_PER USA_SEAHGT USA_SEARAD_NE USA_SEARAD_SE USA_SEARAD_SW USA_SEARAD_NW STORM_SPEED STORM_DIR
1955255N19294 1955 70 NA NA HILDA 1955-09-12 00:00:00 TS 19.2000 -66.1000 40 hurdat_atl main 89 89 O_____________ hurdat_atl AL091955 19.2000 -66.1000 TS 40 0 9 290
1955255N19294 1955 70 NA NA HILDA 1955-09-12 03:00:00 TS 19.3536 -66.5396 main 111 111 P_____________ AL091955 19.3536 -66.5396 TS 42 0 9 289
1955255N19294 1955 70 NA NA HILDA 1955-09-12 06:00:00 TS 19.5000 -67.0000 45 hurdat_atl main 123 123 O_____________ hurdat_atl AL091955 19.5000 -67.0000 TS 45 0 9 288
1955255N19294 1955 70 NA NA HILDA 1955-09-12 09:00:00 TS 19.6397 -67.4933 main 135 128 P_____________ AL091955 19.6397 -67.4933 TS 47 0 10 288
1955255N19294 1955 70 NA NA HILDA 1955-09-12 12:00:00 TS 19.8000 -68.0000 50 hurdat_atl main 128 114 O_____________ hurdat_atl AL091955 19.8000 -68.0000 TS 50 0 10 291
1955255N19294 1955 70 NA NA HILDA 1955-09-12 15:00:00 TS 20.0000 -68.5000 55 996 hurdat_atl main 114 91 O_____________ hurdat_atl AL091955 20.0000 -68.5000 R TS 55 996 0 11 286
1955255N19294 1955 70 NA NA HILDA 1955-09-12 18:00:00 TS 20.1000 -69.1000 60 hurdat_atl main 91 79 O_____________ hurdat_atl AL091955 20.1000 -69.1000 TS 60 0 11 280
1955255N19294 1955 70 NA NA HILDA 1955-09-12 21:00:00 TS 20.1998 -69.6603 main 74 67 P_____________ AL091955 20.1998 -69.6603 TS 65 1 11 281
1955255N19294 1955 70 NA NA HILDA 1955-09-13 00:00:00 TS 20.3000 -70.2000 70 hurdat_atl main 69 59 O_____________ hurdat_atl AL091955 20.3000 -70.2000 HU 70 1 10 282
1955255N19294 1955 70 NA NA HILDA 1955-09-13 03:00:00 TS 20.4223 -70.7423 main 67 67 P_____________ AL091955 20.4223 -70.7423 HU 70 1 11 281
1955255N19294 1955 70 NA NA HILDA 1955-09-13 06:00:00 TS 20.5000 -71.3000 70 hurdat_atl main 78 78 O_____________ hurdat_atl AL091955 20.5000 -71.3000 HU 70 1 11 273
1955255N19294 1955 70 NA NA HILDA 1955-09-13 09:00:00 TS 20.4799 -71.9001 main 78 56 P_____________ AL091955 20.4799 -71.9001 HU 70 1 11 265
1955255N19294 1955 70 NA NA HILDA 1955-09-13 12:00:00 TS 20.4000 -72.5000 70 hurdat_atl main 56 44 O_____________ hurdat_atl AL091955 20.4000 -72.5000 HU 70 1 11 260
1955255N19294 1955 70 NA NA HILDA 1955-09-13 15:00:00 TS 20.2861 -73.0467 main 44 39 P_____________ AL091955 20.2861 -73.0467 HU 70 1 11 259
1955255N19294 1955 70 NA NA HILDA 1955-09-13 18:00:00 TS 20.2000 -73.6000 70 986 hurdat_atl main 49 0 O_____________ hurdat_atl AL091955 20.2000 -73.6000 HU 70 986 1 11 265
1955255N19294 1955 70 NA NA HILDA 1955-09-13 21:00:00 TS 20.2000 -74.2000 70 986 hurdat_atl main 0 0 O_____________ hurdat_atl AL091955 20.2000 -74.2000 L HU 70 986 1 11 265
1955255N19294 1955 70 NA NA HILDA 1955-09-14 00:00:00 TS 20.1000 -74.8000 60 hurdat_atl main 0 0 O_____________ hurdat_atl AL091955 20.1000 -74.8000 TS 60 0 12 264
1955255N19294 1955 70 NA NA HILDA 1955-09-14 03:00:00 TS 20.0794 -75.4726 main 0 0 P_____________ AL091955 20.0794 -75.4726 TS 57 0 13 270
1955255N19294 1955 70 NA NA HILDA 1955-09-14 06:00:00 TS 20.1000 -76.2000 55 hurdat_atl main 0 0 O_____________ hurdat_atl AL091955 20.1000 -76.2000 TS 55 0 14 271
1955255N19294 1955 70 NA NA HILDA 1955-09-14 09:00:00 TS 20.1148 -76.9423 main 0 0 P_____________ AL091955 20.1148 -76.9423 TS 52 0 14 270
1955255N19294 1955 70 NA CS HILDA 1955-09-14 12:00:00 TS 20.1000 -77.7000 50 hurdat_atl main 10 10 O_____________ hurdat_atl AL091955 20.1000 -77.7000 TS 50 0 14 267
1955255N19294 1955 70 NA CS HILDA 1955-09-14 15:00:00 TS 20.0298 -78.4574 main 86 86 P_____________ AL091955 20.0298 -78.4574 TS 50 0 14 262
1955255N19294 1955 70 NA CS HILDA 1955-09-14 18:00:00 TS 19.9000 -79.2000 50 hurdat_atl main 143 143 O_____________ hurdat_atl AL091955 19.9000 -79.2000 TS 50 0 14 257
1955255N19294 1955 70 NA CS HILDA 1955-09-14 21:00:00 TS 19.7135 -79.9273 main 206 206 P_____________ AL091955 19.7135 -79.9273 TS 55 0 14 253
1955255N19294 1955 70 NA CS HILDA 1955-09-15 00:00:00 TS 19.5000 -80.6000 60 995 hurdat_atl main 253 253 O_____________ hurdat_atl AL091955 19.5000 -80.6000 TS 60 995 0 13 251
1955255N19294 1955 70 NA CS HILDA 1955-09-15 03:00:00 TS 19.3000 -81.2000 65 995 hurdat_atl main 288 256 O_____________ hurdat_atl AL091955 19.3000 -81.2000 L HU 65 995 1 14 258
1955255N19294 1955 70 NA CS HILDA 1955-09-15 06:00:00 TS 19.2000 -82.1000 75 hurdat_atl main 256 246 I_____________ hurdat_atl AL091955 19.2000 -82.1000 HU 75 990 1 15 264
1955255N19294 1955 70 NA CS HILDA 1955-09-15 09:00:00 TS 19.1326 -82.8215 main 257 257 P_____________ AL091955 19.1326 -82.8215 HU 82 985 1 12 265
1955255N19294 1955 70 NA CS HILDA 1955-09-15 12:00:00 TS 19.1000 -83.4000 90 980 hurdat_atl main 264 264 O_____________ hurdat_atl AL091955 19.1000 -83.4000 HU 90 980 2 10 267
1955255N19294 1955 70 NA CS HILDA 1955-09-15 15:00:00 TS 19.0847 -83.9225 main 281 281 P_____________ AL091955 19.0847 -83.9225 HU 95 975 2 9 270
1955255N19294 1955 70 NA CS HILDA 1955-09-15 18:00:00 TS 19.1000 -84.4000 100 hurdat_atl main 302 266 I_____________ hurdat_atl AL091955 19.1000 -84.4000 HU 100 971 3 9 273
1955255N19294 1955 70 NA CS HILDA 1955-09-15 21:00:00 TS 19.1349 -84.9000 main 266 212 P_____________ AL091955 19.1349 -84.9000 HU 102 967 3 10 276
1955255N19294 1955 70 NA CS HILDA 1955-09-16 00:00:00 TS 19.2000 -85.4000 105 963 hurdat_atl main 212 158 O_____________ hurdat_atl AL091955 19.2000 -85.4000 HU 105 963 3 10 279
1955255N19294 1955 70 NA CS HILDA 1955-09-16 03:00:00 TS 19.2924 -85.9000 main 158 105 P_____________ AL091955 19.2924 -85.9000 HU 105 3 10 282
1955255N19294 1955 70 NA CS HILDA 1955-09-16 06:00:00 TS 19.4000 -86.4000 105 hurdat_atl main 105 52 O_____________ hurdat_atl AL091955 19.4000 -86.4000 HU 105 3 10 282
1955255N19294 1955 70 NA CS HILDA 1955-09-16 09:00:00 TS 19.4883 -86.9117 main 52 11 P_____________ AL091955 19.4883 -86.9117 HU 105 3 10 282
1955255N19294 1955 70 NA CS HILDA 1955-09-16 12:00:00 TS 19.6000 -87.4000 105 hurdat_atl main 11 0 O_____________ hurdat_atl AL091955 19.6000 -87.4000 HU 105 3 9 286
1955255N19294 1955 70 NA CS HILDA 1955-09-16 14:00:00 TS 19.7000 -87.7000 105 hurdat_atl main 0 0 O_____________ hurdat_atl AL091955 19.7000 -87.7000 L HU 105 3 9 289
1955255N19294 1955 70 NA NA HILDA 1955-09-16 15:00:00 TS 19.7500 -87.8676 main 0 0 P_____________ AL091955 19.7500 -87.8676 HU 98 3 10 287
1955255N19294 1955 70 NA NA HILDA 1955-09-16 18:00:00 TS 19.9000 -88.4000 80 hurdat_atl main 0 0 O_____________ hurdat_atl AL091955 19.9000 -88.4000 HU 80 1 10 288
1955255N19294 1955 70 NA NA HILDA 1955-09-16 21:00:00 TS 20.0498 -88.8638 main 0 0 P_____________ AL091955 20.0498 -88.8638 HU 70 1 9 290
1955255N19294 1955 70 NA NA HILDA 1955-09-17 00:00:00 TS 20.2000 -89.3000 60 hurdat_atl main 0 0 O_____________ hurdat_atl AL091955 20.2000 -89.3000 TS 60 0 9 290
1955255N19294 1955 70 NA NA HILDA 1955-09-17 03:00:00 TS 20.3499 -89.7501 main 0 0 P_____________ AL091955 20.3499 -89.7501 TS 57 0 9 290
1955255N19294 1955 70 NA NA HILDA 1955-09-17 06:00:00 TS 20.5000 -90.2000 55 hurdat_atl main 0 0 O_____________ hurdat_atl AL091955 20.5000 -90.2000 TS 55 0 9 290
1955255N19294 1955 70 NA GM HILDA 1955-09-17 09:00:00 TS 20.6574 -90.6500 main 30 30 P_____________ AL091955 20.6574 -90.6500 TS 55 0 9 290
1955255N19294 1955 70 NA GM HILDA 1955-09-17 12:00:00 TS 20.8000 -91.1000 55 hurdat_atl main 70 70 O_____________ hurdat_atl AL091955 20.8000 -91.1000 TS 55 0 9 287
1955255N19294 1955 70 NA GM HILDA 1955-09-17 15:00:00 TS 20.9149 -91.5575 main 122 122 P_____________ AL091955 20.9149 -91.5575 TS 60 0 9 283
1955255N19294 1955 70 NA GM HILDA 1955-09-17 18:00:00 TS 21.0000 -92.0000 65 985 hurdat_atl main 165 165 O_____________ hurdat_atl AL091955 21.0000 -92.0000 HU 65 985 1 8 280
1955255N19294 1955 70 NA GM HILDA 1955-09-17 21:00:00 TS 21.0499 -92.4152 main 205 205 P_____________ AL091955 21.0499 -92.4152 HU 70 1 8 278
1955255N19294 1955 70 NA GM HILDA 1955-09-18 00:00:00 TS 21.1000 -92.8000 75 hurdat_atl main 248 248 O_____________ hurdat_atl AL091955 21.1000 -92.8000 HU 75 1 7 282
1955255N19294 1955 70 NA GM HILDA 1955-09-18 03:00:00 TS 21.1924 -93.1575 main 291 291 P_____________ AL091955 21.1924 -93.1575 HU 77 1 7 287
1955255N19294 1955 70 NA GM HILDA 1955-09-18 06:00:00 TS 21.3000 -93.5000 80 hurdat_atl main 313 313 O_____________ hurdat_atl AL091955 21.3000 -93.5000 HU 80 1 7 287
1955255N19294 1955 70 NA GM HILDA 1955-09-18 09:00:00 TS 21.3924 -93.8501 main 309 290 P_____________ AL091955 21.3924 -93.8501 HU 82 1 7 287
1955255N19294 1955 70 NA GM HILDA 1955-09-18 12:00:00 TS 21.5000 -94.2000 85 970 hurdat_atl main 290 274 O_____________ hurdat_atl AL091955 21.5000 -94.2000 HU 85 970 2 7 292
1955255N19294 1955 70 NA GM HILDA 1955-09-18 15:00:00 TS 21.6498 -94.5275 main 274 248 P_____________ AL091955 21.6498 -94.5275 HU 87 2 7 295
1955255N19294 1955 70 NA GM HILDA 1955-09-18 18:00:00 TS 21.8000 -94.9000 90 hurdat_atl main 248 209 O_____________ hurdat_atl AL091955 21.8000 -94.9000 HU 90 2 8 289
1955255N19294 1955 70 NA GM HILDA 1955-09-18 21:00:00 TS 21.9150 -95.3700 main 199 151 P_____________ AL091955 21.9150 -95.3700 HU 95 2 9 282
1955255N19294 1955 70 NA GM HILDA 1955-09-19 00:00:00 TS 22.0000 -95.9000 100 hurdat_atl main 151 103 O_____________ hurdat_atl AL091955 22.0000 -95.9000 HU 100 3 10 277
1955255N19294 1955 70 NA GM HILDA 1955-09-19 03:00:00 TS 22.0457 -96.4446 main 103 60 P_____________ AL091955 22.0457 -96.4446 HU 102 3 10 276
1955255N19294 1955 70 NA GM HILDA 1955-09-19 06:00:00 TS 22.1000 -97.0000 105 hurdat_atl main 60 30 O_____________ hurdat_atl AL091955 22.1000 -97.0000 HU 105 3 10 281
1955255N19294 1955 70 NA GM HILDA 1955-09-19 09:00:00 TS 22.2430 -97.5265 main 30 0 P_____________ AL091955 22.2430 -97.5265 HU 105 3 10 283
1955255N19294 1955 70 NA NA HILDA 1955-09-19 11:00:00 TS 22.3000 -97.9000 105 952 hurdat_atl main 0 0 O_____________ hurdat_atl AL091955 22.3000 -97.9000 L HU 105 952 3 11 276
1955255N19294 1955 70 NA NA HILDA 1955-09-19 12:00:00 TS 22.3000 -98.1000 105 952 hurdat_atl main 0 0 O_____________ hurdat_atl AL091955 22.3000 -98.1000 HU 105 952 3 9 267
1955255N19294 1955 70 NA NA HILDA 1955-09-19 15:00:00 TS 22.2694 -98.5415 main 0 0 P_____________ AL091955 22.2694 -98.5415 HU 77 1 7 261
1955255N19294 1955 70 NA NA HILDA 1955-09-19 18:00:00 TS 22.2000 -98.8000 50 hurdat_atl main 0 0 O_____________ hurdat_atl AL091955 22.2000 -98.8000 TS 50 0 4 248
1955255N19294 1955 70 NA NA HILDA 1955-09-19 21:00:00 TS 22.1073 -98.9725 main 0 0 P_____________ AL091955 22.1073 -98.9725 TS 40 0 3 234
1955255N19294 1955 70 NA NA HILDA 1955-09-20 00:00:00 TS 22.0000 -99.1000 30 hurdat_atl main 0 0 O_____________ hurdat_atl AL091955 22.0000 -99.1000 TD 30 -1 4 234
1955255N19294 1955 70 NA NA HILDA 1955-09-20 03:00:00 TS 21.8976 -99.2801 main 0 0 P_____________ AL091955 21.8976 -99.2801 TD 27 -1 4 242
1955255N19294 1955 70 NA NA HILDA 1955-09-20 06:00:00 TS 21.8000 -99.5000 25 hurdat_atl main 0 O_____________ hurdat_atl AL091955 21.8000 -99.5000 TD 25 -1 5 245

About IBTrACS Database

This database is a web-friendly format of International Best Track Archive for Climate Stewardship (IBTrACS), a global best track data archive curated by NOAA dating back to 1842.

Updated: 2021-12-01